Time;durP1;ratioP1;P1;durP2;ratioP2;P2;SDS_P1;SDS_P2;PMS_P1;PMS_P2;Temp;Humidity;BMP_temperature;BMP_pressure;BME280_temperature;BME280_humidity;BME280_pressure;Samples;Min_cycle;Max_cycle;Signal;HPM_P1;HPM_P2
2022/09/25 00:00:43;;;;;;;9.57;3.00;;;;;;;;;;5071452;28;20405;-67
2022/09/25 00:03:10;;;;;;;9.38;3.20;;;;;;;;;;5070408;28;20044;-67
2022/09/25 00:05:36;;;;;;;9.93;2.70;;;;;;;;;;5070194;28;20513;-67
2022/09/25 00:08:03;;;;;;;7.47;2.45;;;;;;;;;;5070701;28;20283;-67
2022/09/25 00:10:29;;;;;;;6.10;2.10;;;;;;;;;;5067859;28;20059;-67
2022/09/25 00:12:55;;;;;;;10.90;2.70;;;;;;;;;;5065584;28;20534;-67
2022/09/25 00:15:22;;;;;;;6.00;2.28;;;;;;;;;;5070101;28;20036;-67
2022/09/25 00:17:48;;;;;;;6.22;2.42;;;;;;;;;;5065635;28;20044;-67
2022/09/25 00:20:16;;;;;;;6.63;2.50;;;;;;;;;;5071664;28;20044;-67
2022/09/25 00:22:42;;;;;;;6.00;2.38;;;;;;;;;;5069291;28;20043;-67
2022/09/25 00:25:14;;;;;;;7.75;2.65;;;;;;;;;;5070229;28;20047;-67
2022/09/25 00:27:41;;;;;;;6.47;2.60;;;;;;;;;;5069066;28;20520;-67
2022/09/25 00:30:08;;;;;;;6.45;2.78;;;;;;;;;;5070658;28;20067;-67
2022/09/25 00:32:34;;;;;;;10.68;2.63;;;;;;;;;;5069896;28;20406;-67
2022/09/25 00:35:00;;;;;;;4.60;2.83;;;;;;;;;;5071412;28;20444;-67
2022/09/25 00:37:29;;;;;;;8.90;2.60;;;;;;;;;;5071388;28;20032;-67
2022/09/25 00:39:55;;;;;;;6.80;2.53;;;;;;;;;;5069398;28;20433;-67
2022/09/25 00:42:22;;;;;;;6.43;2.78;;;;;;;;;;5067998;28;20043;-67
2022/09/25 00:45:01;;;;;;;8.25;3.05;;;;;;;;;;5070931;28;20047;-67
2022/09/25 00:47:39;;;;;;;8.75;2.50;;;;;;;;;;5070946;28;20494;-67
2022/09/25 00:50:11;;;;;;;8.75;2.92;;;;;;;;;;5070846;28;20124;-67
2022/09/25 00:52:38;;;;;;;7.82;2.75;;;;;;;;;;5069691;28;20597;-67
2022/09/25 00:55:06;;;;;;;5.38;2.75;;;;;;;;;;5071993;28;20043;-67
2022/09/25 00:57:34;;;;;;;7.43;2.67;;;;;;;;;;5065943;28;20123;-67
2022/09/25 01:00:01;;;;;;;6.85;2.97;;;;;;;;;;5074892;28;20039;-67
2022/09/25 01:02:29;;;;;;;9.10;3.30;;;;;;;;;;5074030;28;20076;-67
2022/09/25 01:04:57;;;;;;;6.35;3.05;;;;;;;;;;5074618;28;20046;-67
2022/09/25 01:07:23;;;;;;;6.22;2.95;;;;;;;;;;5065424;28;20118;-67
2022/09/25 01:09:49;;;;;;;6.25;2.95;;;;;;;;;;5074042;28;20119;-67
2022/09/25 01:12:15;;;;;;;4.75;2.65;;;;;;;;;;5073254;28;20033;-67
2022/09/25 01:14:42;;;;;;;9.00;2.70;;;;;;;;;;5074417;28;20116;-67
2022/09/25 01:17:24;;;;;;;8.82;3.45;;;;;;;;;;5065739;28;20090;-67
2022/09/25 01:20:14;;;;;;;7.63;3.10;;;;;;;;;;5066911;28;20529;-67
2022/09/25 01:22:55;;;;;;;6.82;2.90;;;;;;;;;;5073424;28;20079;-67
2022/09/25 01:25:21;;;;;;;;;;;;;;;;;;5074674;28;20410;-67
2022/09/25 01:28:08;;;;;;;5.68;2.97;;;;;;;;;;5074437;28;19916;-67
2022/09/25 01:30:38;;;;;;;7.72;3.00;;;;;;;;;;5074432;28;20051;-67
2022/09/25 01:33:10;;;;;;;9.07;3.70;;;;;;;;;;5072811;28;20049;-67
2022/09/25 01:35:48;;;;;;;8.15;3.15;;;;;;;;;;5073008;28;20040;-67
2022/09/25 01:38:27;;;;;;;9.15;3.35;;;;;;;;;;5084696;22;20140;-64
2022/09/25 01:40:59;;;;;;;6.80;2.97;;;;;;;;;;5036997;28;20044;-64
2022/09/25 01:43:38;;;;;;;6.28;3.28;;;;;;;;;;5059396;28;20130;-64
2022/09/25 01:46:16;;;;;;;8.98;3.30;;;;;;;;;;5061726;28;20045;-64
2022/09/25 01:48:44;;;;;;;6.35;2.78;;;;;;;;;;5066852;28;20175;-63
2022/09/25 01:51:14;;;;;;;4.70;2.90;;;;;;;;;;5063844;28;20044;-64
2022/09/25 01:53:46;;;;;;;6.53;3.08;;;;;;;;;;5069481;28;20127;-63
2022/09/25 01:56:31;;;;;;;8.90;3.03;;;;;;;;;;5038783;28;20608;-64
2022/09/25 01:59:05;;;;;;;6.47;3.53;;;;;;;;;;5063738;28;20053;-64
2022/09/25 02:01:33;;;;;;;7.75;3.28;;;;;;;;;;5056773;28;20505;-64
2022/09/25 02:04:07;;;;;;;8.63;2.88;;;;;;;;;;5060757;28;20036;-64
2022/09/25 02:06:33;;;;;;;5.35;3.10;;;;;;;;;;5064622;28;20036;-64
2022/09/25 02:09:02;;;;;;;6.85;3.10;;;;;;;;;;5072907;28;20040;-64
2022/09/25 02:11:31;;;;;;;6.85;3.33;;;;;;;;;;5058629;28;20456;-63
2022/09/25 02:14:11;;;;;;;5.82;3.08;;;;;;;;;;5069594;28;20040;-63
2022/09/25 02:16:38;;;;;;;6.43;3.13;;;;;;;;;;5061971;28;20076;-63
2022/09/25 02:21:54;;;;;;;6.60;3.13;;;;;;;;;;5065735;28;20048;-63
2022/09/25 02:24:20;;;;;;;6.18;2.97;;;;;;;;;;5054595;28;20033;-64
2022/09/25 02:26:47;;;;;;;7.60;2.90;;;;;;;;;;5054784;28;20033;-63
2022/09/25 02:29:14;;;;;;;6.55;2.90;;;;;;;;;;5063882;28;20064;-63
2022/09/25 02:32:00;;;;;;;7.28;3.33;;;;;;;;;;5053451;28;20124;-63
2022/09/25 02:34:26;;;;;;;8.32;3.30;;;;;;;;;;5044257;28;20456;-64
2022/09/25 02:36:52;;;;;;;8.18;3.17;;;;;;;;;;5060254;28;20494;-63
2022/09/25 02:39:20;;;;;;;8.50;3.05;;;;;;;;;;5064740;28;20044;-64
2022/09/25 02:41:55;;;;;;;10.30;3.20;;;;;;;;;;5071908;28;20071;-63
2022/09/25 02:44:21;;;;;;;7.43;2.67;;;;;;;;;;5064312;28;20048;-64
2022/09/25 02:46:53;;;;;;;5.95;3.00;;;;;;;;;;5071316;28;20035;-64
2022/09/25 02:49:28;;;;;;;7.45;2.75;;;;;;;;;;5034728;28;20110;-64
2022/09/25 02:52:13;;;;;;;8.20;2.90;;;;;;;;;;5059088;28;20040;-63
2022/09/25 02:55:08;;;;;;;8.52;3.40;;;;;;;;;;5068424;28;20410;-64
2022/09/25 02:57:38;;;;;;;9.52;2.97;;;;;;;;;;5036168;28;20053;-63
2022/09/25 03:00:06;;;;;;;5.90;3.00;;;;;;;;;;5051826;28;20110;-64
2022/09/25 03:02:33;;;;;;;9.23;3.28;;;;;;;;;;5062113;28;20068;-64
2022/09/25 03:05:00;;;;;;;5.82;2.90;;;;;;;;;;5061306;28;20043;-64
2022/09/25 03:07:26;;;;;;;8.13;3.17;;;;;;;;;;5059553;28;20044;-64
2022/09/25 03:09:54;;;;;;;8.40;3.30;;;;;;;;;;5066557;28;20048;-64
2022/09/25 03:12:20;;;;;;;12.02;3.17;;;;;;;;;;5064041;28;20037;-64
2022/09/25 03:14:46;;;;;;;10.95;2.80;;;;;;;;;;5064400;28;20040;-64
2022/09/25 03:17:13;;;;;;;8.43;2.55;;;;;;;;;;5067014;28;20162;-64
2022/09/25 03:19:39;;;;;;;9.93;2.65;;;;;;;;;;5066651;28;20043;-64
2022/09/25 03:22:05;;;;;;;5.63;2.92;;;;;;;;;;5065606;28;20036;-64
2022/09/25 03:24:32;;;;;;;6.75;2.78;;;;;;;;;;5063808;28;20037;-64
2022/09/25 03:26:58;;;;;;;7.90;3.10;;;;;;;;;;5067653;28;20036;-64
2022/09/25 03:29:24;;;;;;;5.93;2.97;;;;;;;;;;5061531;28;20397;-64
2022/09/25 03:31:50;;;;;;;8.80;2.88;;;;;;;;;;5055381;28;20044;-63
2022/09/25 03:34:17;;;;;;;7.90;3.08;;;;;;;;;;5045820;28;20086;-63
2022/09/25 03:36:46;;;;;;;8.52;2.97;;;;;;;;;;5066133;28;20045;-64
2022/09/25 03:39:13;;;;;;;8.40;2.92;;;;;;;;;;5044964;28;20053;-64
2022/09/25 03:41:41;;;;;;;5.22;2.80;;;;;;;;;;5051996;28;20502;-64
2022/09/25 03:44:07;;;;;;;8.10;2.80;;;;;;;;;;5067735;28;20028;-64
2022/09/25 03:46:35;;;;;;;6.43;2.90;;;;;;;;;;5063955;28;20134;-64
2022/09/25 03:49:01;;;;;;;6.50;2.63;;;;;;;;;;5063844;28;20040;-64
2022/09/25 03:51:29;;;;;;;5.03;2.72;;;;;;;;;;5069079;28;20533;-64
2022/09/25 03:53:55;;;;;;;5.93;2.78;;;;;;;;;;5037683;28;20045;-63
2022/09/25 03:56:22;;;;;;;8.07;3.08;;;;;;;;;;5033882;28;20036;-63
2022/09/25 03:58:49;;;;;;;6.80;3.08;;;;;;;;;;5051753;28;20106;-64
2022/09/25 04:01:18;;;;;;;6.05;3.13;;;;;;;;;;5055436;28;20037;-64
2022/09/25 04:03:46;;;;;;;8.43;2.90;;;;;;;;;;5068151;28;20048;-64
2022/09/25 04:06:12;;;;;;;7.88;3.10;;;;;;;;;;5069309;28;20458;-63
2022/09/25 04:08:38;;;;;;;8.65;3.08;;;;;;;;;;5054558;28;20072;-63
2022/09/25 04:11:05;;;;;;;7.10;3.08;;;;;;;;;;5069165;28;20060;-64
2022/09/25 04:13:32;;;;;;;8.30;3.53;;;;;;;;;;5064936;28;20040;-64
2022/09/25 04:15:59;;;;;;;10.80;3.58;;;;;;;;;;5055303;28;20041;-64
2022/09/25 04:18:27;;;;;;;6.65;3.00;;;;;;;;;;5058763;28;20448;-63
2022/09/25 04:20:53;;;;;;;8.25;3.03;;;;;;;;;;5052968;28;20409;-63
2022/09/25 04:23:19;;;;;;;7.35;3.25;;;;;;;;;;5055414;28;20529;-63
2022/09/25 04:25:45;;;;;;;8.88;2.80;;;;;;;;;;5051395;28;20069;-64
2022/09/25 04:28:12;;;;;;;7.30;2.88;;;;;;;;;;5038198;28;20048;-63
2022/09/25 04:30:38;;;;;;;6.82;2.97;;;;;;;;;;5063591;28;20037;-63
2022/09/25 04:35:49;;;;;;;8.07;2.85;;;;;;;;;;5058659;28;20072;-63
2022/09/25 04:38:15;;;;;;;8.00;3.22;;;;;;;;;;5061697;28;20513;-63
2022/09/25 04:40:41;;;;;;;5.80;2.88;;;;;;;;;;5063757;28;20072;-63
2022/09/25 04:43:07;;;;;;;6.07;2.60;;;;;;;;;;5068779;28;20127;-64
2022/09/25 04:45:34;;;;;;;7.82;2.88;;;;;;;;;;5045253;28;20041;-63
2022/09/25 04:48:00;;;;;;;8.40;2.72;;;;;;;;;;5062044;28;20037;-64
2022/09/25 04:50:27;;;;;;;5.25;2.38;;;;;;;;;;5061475;28;20040;-63
2022/09/25 04:52:53;;;;;;;5.75;2.78;;;;;;;;;;5069476;28;20123;-63
2022/09/25 04:55:21;;;;;;;6.63;2.50;;;;;;;;;;5061149;28;20082;-63
2022/09/25 04:57:51;;;;;;;9.20;2.53;;;;;;;;;;5054596;28;20407;-64
2022/09/25 05:00:18;;;;;;;7.18;2.40;;;;;;;;;;5059160;28;20106;-63
2022/09/25 05:02:44;;;;;;;6.00;2.58;;;;;;;;;;5063108;28;20081;-63
2022/09/25 05:05:11;;;;;;;7.53;2.35;;;;;;;;;;5059290;28;20036;-64
2022/09/25 05:07:38;;;;;;;4.68;2.05;;;;;;;;;;5066594;28;20398;-63
2022/09/25 05:10:04;;;;;;;3.58;2.40;;;;;;;;;;5062956;28;20098;-63
2022/09/25 05:12:31;;;;;;;7.93;2.60;;;;;;;;;;5058204;28;20041;-63
2022/09/25 05:14:57;;;;;;;3.75;2.28;;;;;;;;;;5045072;28;20240;-64
2022/09/25 05:17:23;;;;;;;4.38;2.70;;;;;;;;;;5060595;28;20115;-64
2022/09/25 05:19:49;;;;;;;5.85;2.53;;;;;;;;;;5058372;28;20041;-63
2022/09/25 05:22:15;;;;;;;6.03;2.42;;;;;;;;;;5058608;28;20600;-63
2022/09/25 05:24:41;;;;;;;6.68;2.33;;;;;;;;;;5071015;28;20466;-64
2022/09/25 05:27:07;;;;;;;5.00;2.25;;;;;;;;;;5051866;28;20076;-64
2022/09/25 05:29:33;;;;;;;3.55;2.10;;;;;;;;;;5059016;28;20127;-64
2022/09/25 05:31:59;;;;;;;4.03;2.28;;;;;;;;;;5067279;28;20052;-63
2022/09/25 05:34:26;;;;;;;4.70;2.25;;;;;;;;;;5063640;28;20033;-64
2022/09/25 05:36:52;;;;;;;3.88;2.10;;;;;;;;;;5058715;28;20045;-64
2022/09/25 05:39:18;;;;;;;6.68;2.70;;;;;;;;;;5051021;28;20037;-63
2022/09/25 05:41:44;;;;;;;6.45;2.55;;;;;;;;;;5060182;28;20048;-63
2022/09/25 05:44:10;;;;;;;8.05;2.65;;;;;;;;;;5063251;28;20110;-64
2022/09/25 05:46:36;;;;;;;11.32;2.90;;;;;;;;;;5056387;28;20036;-64
2022/09/25 05:49:03;;;;;;;8.43;2.88;;;;;;;;;;5070949;28;20040;-64
2022/09/25 05:51:29;;;;;;;6.85;2.95;;;;;;;;;;5063250;28;20413;-63
2022/09/25 05:53:55;;;;;;;9.35;3.03;;;;;;;;;;5060884;28;20036;-64
2022/09/25 05:56:23;;;;;;;8.85;2.72;;;;;;;;;;5073636;28;20064;-64
2022/09/25 05:58:50;;;;;;;7.50;2.60;;;;;;;;;;5060732;28;20051;-63
2022/09/25 06:01:16;;;;;;;5.25;2.53;;;;;;;;;;5062633;28;20059;-64
2022/09/25 06:03:42;;;;;;;6.88;2.53;;;;;;;;;;5038516;28;20045;-63
2022/09/25 06:06:08;;;;;;;6.68;2.72;;;;;;;;;;5064194;28;20090;-63
2022/09/25 06:08:34;;;;;;;5.30;2.38;;;;;;;;;;5050360;28;20560;-64
2022/09/25 06:11:01;;;;;;;9.15;2.80;;;;;;;;;;5059562;28;20041;-63
2022/09/25 06:13:28;;;;;;;6.88;2.95;;;;;;;;;;5049948;28;20048;-63
2022/09/25 06:15:55;;;;;;;5.40;3.00;;;;;;;;;;5068244;28;20171;-63
2022/09/25 06:18:22;;;;;;;8.93;3.05;;;;;;;;;;5058438;28;20116;-63
2022/09/25 06:20:49;;;;;;;14.07;3.83;;;;;;;;;;5037038;28;20052;-64
2022/09/25 06:23:16;;;;;;;6.93;2.60;;;;;;;;;;5070224;28;20138;-64
2022/09/25 06:25:42;;;;;;;8.80;2.75;;;;;;;;;;5070196;28;20051;-64
2022/09/25 06:28:08;;;;;;;5.78;2.60;;;;;;;;;;5061908;28;20028;-63
2022/09/25 06:30:35;;;;;;;7.93;2.72;;;;;;;;;;5060918;28;20514;-64
2022/09/25 06:33:01;;;;;;;6.22;2.80;;;;;;;;;;5072385;28;20056;-63
2022/09/25 06:35:28;;;;;;;8.77;2.83;;;;;;;;;;5065270;28;21493;-64
2022/09/25 06:38:01;;;;;;;6.90;2.47;;;;;;;;;;5059241;28;20040;-63
2022/09/25 06:40:27;;;;;;;6.43;2.58;;;;;;;;;;5059880;28;20044;-64
2022/09/25 06:42:57;;;;;;;7.03;2.50;;;;;;;;;;5062859;28;20506;-64
2022/09/25 06:45:25;;;;;;;6.25;2.47;;;;;;;;;;5063467;28;20041;-64
2022/09/25 06:47:53;;;;;;;8.68;2.80;;;;;;;;;;5061003;28;20129;-64
2022/09/25 06:50:19;;;;;;;9.43;2.53;;;;;;;;;;5056910;28;20521;-64
2022/09/25 06:52:45;;;;;;;3.67;2.47;;;;;;;;;;5065731;28;20045;-64
2022/09/25 06:55:11;;;;;;;8.65;3.13;;;;;;;;;;5048886;28;20048;-63
2022/09/25 06:57:37;;;;;;;5.57;2.65;;;;;;;;;;5042353;28;20052;-64
2022/09/25 07:00:06;;;;;;;7.55;2.63;;;;;;;;;;5053956;28;20123;-63
2022/09/25 07:05:20;;;;;;;7.53;2.55;;;;;;;;;;5060528;28;20037;-63
2022/09/25 07:07:47;;;;;;;6.03;3.00;;;;;;;;;;5060614;28;20033;-64
2022/09/25 07:10:14;;;;;;;6.35;2.50;;;;;;;;;;5046662;28;20474;-64
2022/09/25 07:12:41;;;;;;;5.63;2.50;;;;;;;;;;5062730;28;20041;-64
2022/09/25 07:15:07;;;;;;;7.10;2.42;;;;;;;;;;5067509;28;20044;-64
2022/09/25 07:17:33;;;;;;;6.15;2.60;;;;;;;;;;5051101;28;20090;-64
2022/09/25 07:20:00;;;;;;;4.80;2.75;;;;;;;;;;5059838;28;20051;-64
2022/09/25 07:22:26;;;;;;;9.20;2.60;;;;;;;;;;5054788;28;20041;-63
2022/09/25 07:24:52;;;;;;;8.25;2.17;;;;;;;;;;5051487;28;20043;-64
2022/09/25 07:27:18;;;;;;;7.25;2.13;;;;;;;;;;5061337;28;20036;-64
2022/09/25 07:29:44;;;;;;;5.65;2.05;;;;;;;;;;5053819;28;20118;-64
2022/09/25 07:32:10;;;;;;;5.13;2.20;;;;;;;;;;5059739;28;20060;-64
2022/09/25 07:34:36;;;;;;;3.83;2.22;;;;;;;;;;5056307;28;20519;-64
2022/09/25 07:37:02;;;;;;;8.43;2.17;;;;;;;;;;5058212;28;20037;-64
2022/09/25 07:39:28;;;;;;;6.00;2.00;;;;;;;;;;5068728;28;20532;-64
2022/09/25 07:41:54;;;;;;;5.90;1.85;;;;;;;;;;5068657;22;20068;-67
2022/09/25 07:44:20;;;;;;;7.00;2.40;;;;;;;;;;5047962;28;20040;-67
2022/09/25 07:46:46;;;;;;;7.50;2.03;;;;;;;;;;5050714;28;20037;-67
2022/09/25 07:49:13;;;;;;;5.93;2.00;;;;;;;;;;5049367;28;20479;-67
2022/09/25 07:51:39;;;;;;;5.68;2.17;;;;;;;;;;5048773;28;20036;-67
2022/09/25 07:54:05;;;;;;;7.47;2.30;;;;;;;;;;5050488;28;20044;-67
2022/09/25 07:56:33;;;;;;;5.40;2.30;;;;;;;;;;5047585;28;20041;-67
2022/09/25 07:58:59;;;;;;;4.90;1.88;;;;;;;;;;5050796;28;20044;-66
2022/09/25 08:01:25;;;;;;;6.00;2.47;;;;;;;;;;5042007;28;20102;-67
2022/09/25 08:03:51;;;;;;;8.40;1.83;;;;;;;;;;5045539;28;20486;-67
2022/09/25 08:06:17;;;;;;;9.38;2.20;;;;;;;;;;5051469;28;20116;-67
2022/09/25 08:08:43;;;;;;;7.60;1.90;;;;;;;;;;5049049;28;20455;-67
2022/09/25 08:11:10;;;;;;;4.25;1.75;;;;;;;;;;5050313;28;20394;-67
2022/09/25 08:13:39;;;;;;;6.28;1.60;;;;;;;;;;5050208;28;20116;-67
2022/09/25 08:16:07;;;;;;;11.98;2.38;;;;;;;;;;5043776;28;20048;-67
2022/09/25 08:18:33;;;;;;;7.15;1.75;;;;;;;;;;5045057;28;20045;-67
2022/09/25 08:21:01;;;;;;;4.38;1.63;;;;;;;;;;5044081;28;20039;-67
2022/09/25 08:23:27;;;;;;;5.70;1.52;;;;;;;;;;5049328;28;20044;-67
2022/09/25 08:25:53;;;;;;;6.32;1.60;;;;;;;;;;5050906;28;20059;-67
2022/09/25 08:28:19;;;;;;;5.93;1.42;;;;;;;;;;5051402;28;20052;-67
2022/09/25 08:30:46;;;;;;;6.15;1.80;;;;;;;;;;5050888;28;20040;-67
2022/09/25 08:33:12;;;;;;;5.43;1.60;;;;;;;;;;5049827;28;20094;-67
2022/09/25 08:35:41;;;;;;;5.85;1.30;;;;;;;;;;5050038;28;20049;-67
2022/09/25 08:38:08;;;;;;;3.78;1.40;;;;;;;;;;5051548;28;20118;-67
2022/09/25 08:40:36;;;;;;;3.55;0.98;;;;;;;;;;5042581;28;20095;-67
2022/09/25 08:43:02;;;;;;;7.38;1.20;;;;;;;;;;5050510;28;20388;-67
2022/09/25 08:51:22;;;;;;;5.10;1.10;;;;;;;;;;5047878;28;20045;-67
2022/09/25 08:53:48;;;;;;;7.68;1.17;;;;;;;;;;5050593;28;20037;-67
2022/09/25 08:56:16;;;;;;;4.40;1.00;;;;;;;;;;5049285;28;20198;-67
2022/09/25 08:59:08;;;;;;;4.32;1.00;;;;;;;;;;5050440;28;20044;-67
2022/09/25 09:01:46;;;;;;;4.57;1.00;;;;;;;;;;5022473;28;20180;-67
2022/09/25 09:04:16;;;;;;;4.28;1.05;;;;;;;;;;5046072;28;20047;-67
2022/09/25 09:06:43;;;;;;;4.07;0.80;;;;;;;;;;5050952;28;20037;-67
2022/09/25 09:09:12;;;;;;;5.10;0.93;;;;;;;;;;5049079;28;20040;-67
2022/09/25 09:11:44;;;;;;;3.15;1.30;;;;;;;;;;5051180;28;20040;-67
2022/09/25 09:14:14;;;;;;;6.30;1.10;;;;;;;;;;5052486;28;20071;-67
2022/09/25 09:16:51;;;;;;;10.70;1.42;;;;;;;;;;5053172;28;20055;-67
2022/09/25 09:19:17;;;;;;;2.47;1.05;;;;;;;;;;5054722;28;20036;-67
2022/09/25 09:21:43;;;;;;;6.82;1.05;;;;;;;;;;5054918;28;20037;-67
2022/09/25 09:24:24;;;;;;;6.63;1.00;;;;;;;;;;5052489;28;20040;-67
2022/09/25 09:26:50;;;;;;;;;;;;;;;;;;5054314;28;20045;-67
2022/09/25 09:29:36;;;;;;;5.63;0.93;;;;;;;;;;5054762;28;19921;-67
2022/09/25 09:32:15;;;;;;;6.07;1.00;;;;;;;;;;5050962;28;20094;-67
2022/09/25 09:34:50;;;;;;;6.68;1.23;;;;;;;;;;5034876;28;20041;-68
2022/09/25 09:37:22;;;;;;;5.10;1.10;;;;;;;;;;5044635;28;20491;-67
2022/09/25 09:39:59;;;;;;;4.45;0.80;;;;;;;;;;5053176;28;20036;-67
2022/09/25 09:42:32;;;;;;;5.20;0.77;;;;;;;;;;5054000;28;20041;-67
2022/09/25 09:45:02;;;;;;;5.70;0.98;;;;;;;;;;5053705;28;20040;-67
2022/09/25 09:47:49;;;;;;;2.53;0.70;;;;;;;;;;5053254;28;20483;-67
2022/09/25 09:50:35;;;;;;;3.38;0.77;;;;;;;;;;5042190;28;20064;-67
2022/09/25 09:53:06;;;;;;;3.70;0.70;;;;;;;;;;5052232;28;20431;-67
2022/09/25 09:55:33;;;;;;;6.30;1.48;;;;;;;;;;5047143;28;20041;-67
2022/09/25 09:58:04;;;;;;;4.22;1.00;;;;;;;;;;5050675;28;20501;-67
2022/09/25 10:00:31;;;;;;;6.22;0.80;;;;;;;;;;5053175;28;20101;-67
2022/09/25 10:03:04;;;;;;;3.42;0.93;;;;;;;;;;5053587;28;20037;-67
2022/09/25 10:05:36;;;;;;;4.68;0.80;;;;;;;;;;5050331;28;20041;-67
2022/09/25 10:08:02;;;;;;;6.50;0.77;;;;;;;;;;5052132;28;20041;-67
2022/09/25 10:10:39;;;;;;;5.78;1.05;;;;;;;;;;5053484;28;20044;-67
2022/09/25 10:13:10;;;;;;;6.30;1.25;;;;;;;;;;5053730;28;20044;-67
2022/09/25 10:15:40;;;;;;;5.97;0.90;;;;;;;;;;5052509;28;20044;-67
2022/09/25 10:18:07;;;;;;;7.10;1.00;;;;;;;;;;5053527;28;20410;-67
2022/09/25 10:20:38;;;;;;;6.65;0.98;;;;;;;;;;5052387;28;20414;-68
2022/09/25 10:23:05;;;;;;;1.42;0.55;;;;;;;;;;5053068;28;20675;-67
2022/09/25 10:25:39;;;;;;;4.68;0.82;;;;;;;;;;5053041;28;20037;-67
2022/09/25 10:28:21;;;;;;;4.57;0.88;;;;;;;;;;5053313;28;20094;-67
2022/09/25 10:30:47;;;;;;;3.72;0.95;;;;;;;;;;5046632;28;20065;-67
2022/09/25 10:33:20;;;;;;;3.75;0.93;;;;;;;;;;5053171;28;20029;-67
2022/09/25 10:35:47;;;;;;;6.65;1.13;;;;;;;;;;5052188;28;20041;-67
2022/09/25 10:38:20;;;;;;;4.07;1.40;;;;;;;;;;5052991;28;20116;-67
2022/09/25 10:40:55;;;;;;;3.35;1.00;;;;;;;;;;5053122;28;20087;-67
2022/09/25 10:43:23;;;;;;;3.28;0.73;;;;;;;;;;5052054;28;20198;-67
2022/09/25 10:45:54;;;;;;;4.35;1.00;;;;;;;;;;5052679;28;20478;-67
2022/09/25 10:51:17;;;;;;;1.98;0.75;;;;;;;;;;5048676;28;20124;-67
2022/09/25 10:53:43;;;;;;;3.35;1.00;;;;;;;;;;5050534;28;20124;-67
2022/09/25 10:56:11;;;;;;;3.97;0.90;;;;;;;;;;5052763;28;20399;-67
2022/09/25 10:58:41;;;;;;;2.70;0.90;;;;;;;;;;5050993;28;20044;-67
2022/09/25 11:01:11;;;;;;;5.85;1.05;;;;;;;;;;5052965;28;20127;-68
2022/09/25 11:03:39;;;;;;;3.55;1.20;;;;;;;;;;5051158;28;20494;-67
2022/09/25 11:06:24;;;;;;;5.60;1.13;;;;;;;;;;5052076;28;20037;-67
2022/09/25 11:09:08;;;;;;;6.72;1.00;;;;;;;;;;5042898;28;20075;-68
2022/09/25 11:11:35;;;;;;;3.38;0.80;;;;;;;;;;5043797;28;20037;-67
2022/09/25 11:14:03;;;;;;;1.30;0.57;;;;;;;;;;5048166;28;20131;-68
2022/09/25 11:17:05;;;;;;;2.15;0.70;;;;;;;;;;5050633;28;20076;-67
2022/09/25 11:19:33;;;;;;;2.05;0.40;;;;;;;;;;4975289;28;20494;-67
2022/09/25 11:22:03;;;;;;;1.52;0.50;;;;;;;;;;5035743;28;20052;-68
2022/09/25 11:24:29;;;;;;;0.98;0.40;;;;;;;;;;5043597;28;20045;-67
2022/09/25 11:27:01;;;;;;;1.45;0.40;;;;;;;;;;5051619;28;20033;-67
2022/09/25 11:29:43;;;;;;;5.57;0.55;;;;;;;;;;5051064;28;20100;-67
2022/09/25 11:32:22;;;;;;;1.83;0.57;;;;;;;;;;5051664;28;20041;-68
2022/09/25 11:35:05;;;;;;;1.33;0.50;;;;;;;;;;5042409;28;20458;-68
2022/09/25 11:37:42;;;;;;;2.22;0.60;;;;;;;;;;5046812;28;20045;-67
2022/09/25 11:43:13;;;;;;;1.77;0.45;;;;;;;;;;5051980;28;20127;-67
2022/09/25 11:45:46;;;;;;;2.50;0.88;;;;;;;;;;5051035;28;20116;-67
2022/09/25 11:48:19;;;;;;;2.25;0.40;;;;;;;;;;5033264;28;20045;-67
2022/09/25 11:50:53;;;;;;;1.23;0.50;;;;;;;;;;5047365;28;20414;-67
2022/09/25 11:53:39;;;;;;;2.30;0.40;;;;;;;;;;5049950;28;20037;-67
2022/09/25 11:56:24;;;;;;;1.75;0.40;;;;;;;;;;5047275;28;20120;-67
2022/09/25 11:58:50;;;;;;;2.92;0.88;;;;;;;;;;5046764;28;20044;-67
2022/09/25 12:01:24;;;;;;;1.75;0.50;;;;;;;;;;5046558;28;20719;-67
2022/09/25 12:03:59;;;;;;;2.13;0.65;;;;;;;;;;5051028;28;20041;-68
2022/09/25 12:06:52;;;;;;;3.22;0.60;;;;;;;;;;5050684;28;20490;-67
2022/09/25 12:09:38;;;;;;;0.73;0.32;;;;;;;;;;5049110;28;20522;-68
2022/09/25 12:12:23;;;;;;;2.50;0.73;;;;;;;;;;5048473;28;20037;-68
2022/09/25 12:15:00;;;;;;;1.73;0.50;;;;;;;;;;5046388;28;20498;-68
2022/09/25 12:17:45;;;;;;;2.13;0.60;;;;;;;;;;5044321;28;20037;-67
2022/09/25 12:20:11;;;;;;;3.45;0.70;;;;;;;;;;5048366;28;20037;-67
2022/09/25 12:22:56;;;;;;;3.75;0.60;;;;;;;;;;5051688;28;20048;-67
2022/09/25 12:25:32;;;;;;;4.22;0.60;;;;;;;;;;5051406;28;20085;-67
2022/09/25 12:28:04;;;;;;;1.58;0.70;;;;;;;;;;5035834;28;20044;-66
2022/09/25 12:30:50;;;;;;;3.30;0.70;;;;;;;;;;5034394;28;20045;-67
2022/09/25 12:33:22;;;;;;;4.63;0.60;;;;;;;;;;5046890;28;20086;-67
2022/09/25 12:36:00;;;;;;;2.28;0.75;;;;;;;;;;5042999;28;20689;-68
2022/09/25 12:38:30;;;;;;;3.63;0.60;;;;;;;;;;5047454;28;20090;-67
2022/09/25 12:40:59;;;;;;;1.85;0.70;;;;;;;;;;5047729;28;20103;-67
2022/09/25 12:43:28;;;;;;;1.08;0.60;;;;;;;;;;5047320;28;20037;-67
2022/09/25 12:46:05;;;;;;;4.60;0.75;;;;;;;;;;5051391;28;20041;-67
2022/09/25 12:48:37;;;;;;;3.58;0.70;;;;;;;;;;5046898;28;20044;-68
2022/09/25 12:51:03;;;;;;;5.47;0.90;;;;;;;;;;5051041;28;20084;-67
2022/09/25 12:53:30;;;;;;;3.55;0.90;;;;;;;;;;5055311;28;20048;-67
2022/09/25 12:56:03;;;;;;;2.88;0.80;;;;;;;;;;5051439;28;20406;-67
2022/09/25 12:58:47;;;;;;;5.50;0.98;;;;;;;;;;5053069;28;20526;-67
2022/09/25 13:01:19;;;;;;;4.30;0.77;;;;;;;;;;5054859;28;20033;-67
2022/09/25 13:04:00;;;;;;;2.65;0.90;;;;;;;;;;5054864;28;20041;-67
2022/09/25 13:06:47;;;;;;;2.83;0.77;;;;;;;;;;5054453;28;20061;-67
2022/09/25 13:09:28;;;;;;;5.45;0.88;;;;;;;;;;5052998;28;20512;-67
2022/09/25 13:11:58;;;;;;;4.75;0.90;;;;;;;;;;5051402;28;20056;-67
2022/09/25 13:14:30;;;;;;;3.53;0.73;;;;;;;;;;5053185;28;20029;-67
2022/09/25 13:16:56;;;;;;;3.85;0.77;;;;;;;;;;5051593;28;20037;-67
2022/09/25 13:19:31;;;;;;;6.07;1.08;;;;;;;;;;5051765;28;20029;-67
2022/09/25 13:22:04;;;;;;;4.07;0.70;;;;;;;;;;5048600;28;20112;-67
2022/09/25 13:24:31;;;;;;;3.78;0.90;;;;;;;;;;5053739;28;20044;-67
2022/09/25 13:27:02;;;;;;;3.65;0.70;;;;;;;;;;5053653;28;20064;-67
2022/09/25 13:29:34;;;;;;;1.45;0.52;;;;;;;;;;5053997;28;20056;-67
2022/09/25 13:32:06;;;;;;;4.78;0.47;;;;;;;;;;5054747;28;20495;-67
2022/09/25 13:34:37;;;;;;;2.53;0.60;;;;;;;;;;5052040;28;20351;-67
2022/09/25 13:37:05;;;;;;;1.10;0.50;;;;;;;;;;5054513;28;20132;-67
2022/09/25 13:42:37;;;;;;;2.90;0.40;;;;;;;;;;5043109;28;20049;-67
2022/09/25 13:45:06;;;;;;;2.50;0.70;;;;;;;;;;5047538;28;20035;-67
2022/09/25 13:47:42;;;;;;;2.10;0.50;;;;;;;;;;5041961;28;20041;-67
2022/09/25 13:50:11;;;;;;;2.90;0.50;;;;;;;;;;5074378;22;20438;-63
2022/09/25 13:52:40;;;;;;;2.45;0.60;;;;;;;;;;5058567;28;20091;-64
2022/09/25 13:55:18;;;;;;;1.63;0.80;;;;;;;;;;5052806;28;20048;-64
2022/09/25 13:58:00;;;;;;;1.75;0.60;;;;;;;;;;5072117;28;20048;-64
2022/09/25 14:00:32;;;;;;;2.08;0.60;;;;;;;;;;5069074;28;20054;-63
2022/09/25 14:03:02;;;;;;;2.80;0.70;;;;;;;;;;5071787;28;20098;-63
2022/09/25 14:05:34;;;;;;;1.67;0.60;;;;;;;;;;5074089;28;20041;-63
2022/09/25 14:08:08;;;;;;;0.63;0.50;;;;;;;;;;5063207;28;20102;-63
2022/09/25 14:10:34;;;;;;;1.90;0.55;;;;;;;;;;5067697;28;20041;-63
2022/09/25 14:13:01;;;;;;;2.25;0.65;;;;;;;;;;5069636;28;20405;-63
2022/09/25 14:15:27;;;;;;;2.45;0.57;;;;;;;;;;5072684;28;20052;-63
2022/09/25 14:17:55;;;;;;;2.47;0.65;;;;;;;;;;5073770;28;20040;-63
2022/09/25 14:20:30;;;;;;;2.28;0.68;;;;;;;;;;5073113;28;20044;-63
2022/09/25 14:22:58;;;;;;;3.47;0.60;;;;;;;;;;5064599;28;20090;-63
2022/09/25 14:25:26;;;;;;;2.22;0.90;;;;;;;;;;5063733;28;20037;-63
2022/09/25 14:27:53;;;;;;;1.73;0.60;;;;;;;;;;5058569;28;20426;-64
2022/09/25 14:30:19;;;;;;;1.83;0.50;;;;;;;;;;5065751;28;20041;-63
2022/09/25 14:32:55;;;;;;;2.38;0.63;;;;;;;;;;5066861;28;20048;-64
2022/09/25 14:35:34;;;;;;;2.45;0.68;;;;;;;;;;5055574;28;20555;-64
2022/09/25 14:38:01;;;;;;;2.20;0.63;;;;;;;;;;5070433;28;20045;-63
2022/09/25 14:40:32;;;;;;;4.70;0.82;;;;;;;;;;5063952;28;20390;-64
2022/09/25 14:42:59;;;;;;;2.70;0.70;;;;;;;;;;5062997;28;20494;-64
2022/09/25 14:45:34;;;;;;;1.52;0.70;;;;;;;;;;5070313;28;20048;-64
2022/09/25 14:48:02;;;;;;;2.20;0.60;;;;;;;;;;5066350;28;20041;-64
2022/09/25 14:50:30;;;;;;;2.55;0.98;;;;;;;;;;5053434;28;20506;-63
2022/09/25 14:52:58;;;;;;;1.30;0.70;;;;;;;;;;5053198;28;20036;-64
2022/09/25 14:55:30;;;;;;;0.95;0.50;;;;;;;;;;5064924;28;20040;-64
2022/09/25 14:57:57;;;;;;;3.40;0.80;;;;;;;;;;5070707;28;20383;-65
2022/09/25 15:00:23;;;;;;;2.55;0.75;;;;;;;;;;5063392;28;20075;-64
2022/09/25 15:02:51;;;;;;;2.05;0.80;;;;;;;;;;5063809;28;20040;-63
2022/09/25 15:05:18;;;;;;;2.63;1.10;;;;;;;;;;5060189;28;20036;-63
2022/09/25 15:07:46;;;;;;;1.35;0.73;;;;;;;;;;5065512;28;20052;-64
2022/09/25 15:10:24;;;;;;;3.30;1.00;;;;;;;;;;5061957;28;20068;-64
2022/09/25 15:12:53;;;;;;;2.42;1.00;;;;;;;;;;5065026;28;20125;-64
2022/09/25 15:15:20;;;;;;;3.85;1.10;;;;;;;;;;5066250;28;20047;-64
2022/09/25 15:17:52;;;;;;;4.63;1.00;;;;;;;;;;5065314;28;20052;-64
2022/09/25 15:20:19;;;;;;;2.72;1.00;;;;;;;;;;5061351;28;20154;-65
2022/09/25 15:22:52;;;;;;;2.83;1.10;;;;;;;;;;5064042;28;20080;-64